createdAt,value
2023-03-24T00:00:23.978Z,80.43
2023-03-24T00:03:01.321Z,80.68
2023-03-24T00:05:34.582Z,80.66
2023-03-24T00:08:06.495Z,80.88
2023-03-24T00:10:42.575Z,81.23
2023-03-24T00:13:14.378Z,81.31
2023-03-24T00:15:48.756Z,81.36
2023-03-24T00:18:25.917Z,81.26
2023-03-24T00:20:58.857Z,81.31
2023-03-24T00:23:32.418Z,81.33
2023-03-24T00:26:08.812Z,81.37
2023-03-24T00:28:42.747Z,81.55
2023-03-24T00:31:15.881Z,81.13
2023-03-24T00:33:51.456Z,80.98
2023-03-24T00:36:26.582Z,81.50
2023-03-24T00:39:00.271Z,81.33
2023-03-24T00:41:32.028Z,81.72
2023-03-24T00:44:07.130Z,81.06
2023-03-24T00:46:39.691Z,80.64
2023-03-24T00:49:15.512Z,80.99
2023-03-24T00:51:48.057Z,81.29
2023-03-24T00:54:21.997Z,81.08
2023-03-24T00:56:55.964Z,80.87
2023-03-24T00:59:29.609Z,81.70
2023-03-24T01:02:01.285Z,81.51
2023-03-24T01:04:36.110Z,81.70
2023-03-24T01:07:10.780Z,81.90
2023-03-24T01:09:42.944Z,82.17
2023-03-24T01:12:14.851Z,82.09
2023-03-24T01:14:47.529Z,82.17
2023-03-24T01:17:22.272Z,82.48
2023-03-24T01:19:56.150Z,82.68
2023-03-24T01:22:31.666Z,83.04
2023-03-24T01:25:04.605Z,83.03
2023-03-24T01:27:36.866Z,82.66
2023-03-24T01:30:13.042Z,83.20
2023-03-24T01:32:45.047Z,83.18
2023-03-24T01:35:19.437Z,83.19
2023-03-24T01:37:52.936Z,83.83
2023-03-24T01:40:29.762Z,83.37
2023-03-24T01:43:03.345Z,83.65
2023-03-24T01:46:14.076Z,83.66
2023-03-24T01:48:51.951Z,83.39
2023-03-24T01:51:30.616Z,83.88
2023-03-24T01:54:08.344Z,83.95
2023-03-24T01:56:46.535Z,84.06
2023-03-24T01:59:26.083Z,83.75
2023-03-24T02:02:03.157Z,84.14
2023-03-24T02:04:39.040Z,84.12
2023-03-24T02:07:21.203Z,84.38
2023-03-24T02:09:53.417Z,84.53
2023-03-24T02:12:25.172Z,84.54
2023-03-24T02:14:56.921Z,84.54
2023-03-24T02:17:54.505Z,84.64
2023-03-24T02:21:35.152Z,84.77
2023-03-24T02:25:12.464Z,84.34
2023-03-24T02:28:05.595Z,84.97
2023-03-24T02:31:25.223Z,84.46
2023-03-24T02:34:55.617Z,84.83
2023-03-24T02:38:03.895Z,84.32
2023-03-24T02:40:40.784Z,84.83
2023-03-24T02:43:45.504Z,84.81
2023-03-24T02:46:25.294Z,84.77
2023-03-24T02:49:20.261Z,84.78
2023-03-24T02:52:04.942Z,84.95
2023-03-24T02:54:48.147Z,85.24
2023-03-24T02:57:31.309Z,85.14
2023-03-24T03:00:13.930Z,85.08
2023-03-24T03:02:53.924Z,85.39
2023-03-24T03:05:35.469Z,85.33
2023-03-24T03:08:11.920Z,85.35
2023-03-24T03:10:47.974Z,85.72
2023-03-24T03:13:31.610Z,85.28
2023-03-24T03:16:09.823Z,85.68
2023-03-24T03:18:50.178Z,85.68
2023-03-24T03:21:28.221Z,85.50
2023-03-24T03:24:09.325Z,85.37
2023-03-24T03:26:47.160Z,85.37
2023-03-24T03:29:27.328Z,85.34
2023-03-24T03:32:07.703Z,85.24
2023-03-24T03:34:48.028Z,85.82
2023-03-24T03:37:27.409Z,85.56
2023-03-24T03:40:04.832Z,85.18
2023-03-24T03:42:37.456Z,84.19
2023-03-24T03:45:14.305Z,84.70
2023-03-24T03:47:46.791Z,85.13
2023-03-24T03:50:18.836Z,84.97
2023-03-24T03:52:52.136Z,84.56
2023-03-24T03:55:24.874Z,84.42
2023-03-24T03:57:57.396Z,83.78
2023-03-24T04:00:31.342Z,84.63
2023-03-24T04:03:26.767Z,85.15
2023-03-24T04:06:06.574Z,85.22
2023-03-24T04:08:49.726Z,85.71
2023-03-24T04:11:56.952Z,85.81
2023-03-24T04:15:15.888Z,86.34
2023-03-24T04:18:17.052Z,87.09
2023-03-24T04:20:57.086Z,87.32
2023-03-24T04:23:40.109Z,87.55
2023-03-24T04:26:28.341Z,87.11
2023-03-24T04:29:17.728Z,87.75
2023-03-24T04:31:59.047Z,87.90
2023-03-24T04:34:38.218Z,88.07
2023-03-24T04:37:16.324Z,88.05
2023-03-24T04:39:58.516Z,88.38
2023-03-24T04:42:36.912Z,88.71
2023-03-24T04:45:12.196Z,88.80
2023-03-24T04:47:53.898Z,88.91
2023-03-24T04:50:38.197Z,89.13
2023-03-24T04:53:11.781Z,89.38
2023-03-24T04:56:02.280Z,89.60
2023-03-24T04:58:34.152Z,89.87
2023-03-24T05:01:08.970Z,89.78
2023-03-24T05:03:42.022Z,89.64
2023-03-24T05:06:17.849Z,88.77
2023-03-24T05:08:49.799Z,89.49
2023-03-24T05:11:21.957Z,89.47
2023-03-24T05:13:53.796Z,89.49
2023-03-24T05:16:25.861Z,89.34
2023-03-24T05:18:57.565Z,88.97
2023-03-24T05:21:33.623Z,89.01
2023-03-24T05:24:05.733Z,89.09
2023-03-24T05:26:39.953Z,88.59
2023-03-24T05:29:11.818Z,88.93
2023-03-24T05:31:45.013Z,89.00
2023-03-24T05:34:16.613Z,88.59
2023-03-24T05:36:49.740Z,87.88
2023-03-24T05:39:21.548Z,88.13
2023-03-24T05:41:53.388Z,87.74
2023-03-24T05:44:25.285Z,87.50
2023-03-24T05:46:57.078Z,86.47
2023-03-24T05:49:28.880Z,86.53
2023-03-24T05:52:02.268Z,86.84
2023-03-24T05:54:34.067Z,85.91
2023-03-24T05:57:07.926Z,86.17
2023-03-24T05:59:40.199Z,85.67
2023-03-24T06:02:12.037Z,84.63
2023-03-24T06:04:46.223Z,84.72
2023-03-24T06:07:20.013Z,85.54
2023-03-24T06:09:52.622Z,85.09
2023-03-24T06:12:24.318Z,83.49
2023-03-24T06:14:56.274Z,83.84
2023-03-24T06:17:30.203Z,83.15
2023-03-24T06:20:05.731Z,83.55
2023-03-24T06:22:38.796Z,84.29
2023-03-24T06:25:12.086Z,84.96
2023-03-24T06:27:46.065Z,84.94
2023-03-24T06:30:19.144Z,85.17
2023-03-24T06:32:51.248Z,86.96
2023-03-24T06:35:23.002Z,87.58
2023-03-24T06:37:56.436Z,87.80
2023-03-24T06:40:28.162Z,88.05
2023-03-24T06:43:00.316Z,88.14
2023-03-24T06:45:32.904Z,88.49
2023-03-24T06:48:04.834Z,87.89
2023-03-24T06:50:38.840Z,88.60
2023-03-24T06:53:13.969Z,88.82
2023-03-24T06:55:46.293Z,89.67
2023-03-24T06:58:18.825Z,90.04
2023-03-24T07:00:50.922Z,90.63
2023-03-24T07:03:23.423Z,90.94
2023-03-24T07:05:55.497Z,90.74
2023-03-24T07:08:37.477Z,90.06
2023-03-24T07:11:11.714Z,90.23
2023-03-24T07:13:43.546Z,90.18
2023-03-24T07:16:15.623Z,87.38
2023-03-24T07:18:47.965Z,86.96
2023-03-24T07:21:19.637Z,87.06
2023-03-24T07:23:52.783Z,86.40
2023-03-24T07:26:24.614Z,85.82
2023-03-24T07:28:56.680Z,86.16
2023-03-24T07:31:28.651Z,86.02
2023-03-24T07:34:01.979Z,85.60
2023-03-24T07:36:33.807Z,85.55
2023-03-24T07:39:06.982Z,85.37
2023-03-24T07:41:38.706Z,84.80
2023-03-24T07:44:10.751Z,84.53
2023-03-24T07:46:42.900Z,84.39
2023-03-24T07:49:19.321Z,83.51
2023-03-24T07:51:51.577Z,81.78
2023-03-24T07:54:24.759Z,81.72
2023-03-24T07:56:56.697Z,79.98
2023-03-24T07:59:28.707Z,80.39
2023-03-24T08:02:00.433Z,78.65
2023-03-24T08:04:33.307Z,79.46
2023-03-24T08:07:05.168Z,78.38
2023-03-24T08:09:39.205Z,77.76
2023-03-24T08:12:19.914Z,77.68
2023-03-24T08:14:52.644Z,76.48
2023-03-24T08:17:24.499Z,78.06
2023-03-24T08:20:00.675Z,75.01
2023-03-24T08:22:33.573Z,74.35
2023-03-24T08:25:08.671Z,75.22
2023-03-24T08:27:44.792Z,72.71
2023-03-24T08:30:21.662Z,71.90
2023-03-24T08:32:56.439Z,71.55
2023-03-24T08:35:32.446Z,73.01
2023-03-24T08:38:07.102Z,73.04
2023-03-24T08:40:42.696Z,72.93
2023-03-24T08:43:19.948Z,74.01
2023-03-24T08:45:51.830Z,72.60
2023-03-24T08:48:23.797Z,71.53
2023-03-24T08:50:55.613Z,68.87
2023-03-24T08:53:27.397Z,66.35
2023-03-24T08:56:00.395Z,68.49
2023-03-24T08:58:32.366Z,66.19
2023-03-24T09:01:04.624Z,66.32
2023-03-24T09:03:39.485Z,68.36
2023-03-24T09:06:12.291Z,66.76
2023-03-24T09:08:44.237Z,67.19
2023-03-24T09:11:23.257Z,67.33
2023-03-24T09:13:56.801Z,65.99
2023-03-24T09:16:28.663Z,65.72
2023-03-24T09:19:00.726Z,66.26
2023-03-24T09:21:32.337Z,66.53
2023-03-24T09:24:05.763Z,67.81
2023-03-24T09:26:38.690Z,65.37
2023-03-24T09:29:12.741Z,63.36
2023-03-24T09:31:44.318Z,63.25
2023-03-24T09:34:16.208Z,60.29
2023-03-24T09:36:48.023Z,61.29
2023-03-24T09:39:20.182Z,61.25
2023-03-24T09:41:53.489Z,62.23
2023-03-24T09:44:32.554Z,62.73
2023-03-24T09:47:20.671Z,63.59
2023-03-24T09:49:56.617Z,63.57
2023-03-24T09:52:36.157Z,64.32
2023-03-24T09:55:14.332Z,63.36
2023-03-24T09:57:51.778Z,63.73
2023-03-24T10:00:29.687Z,65.31
2023-03-24T10:03:14.881Z,64.67
2023-03-24T10:05:55.384Z,64.27
2023-03-24T10:08:36.308Z,63.75
2023-03-24T10:11:17.311Z,63.80
2023-03-24T10:14:13.897Z,61.58
2023-03-24T10:17:00.172Z,62.77
2023-03-24T10:19:46.742Z,63.66
2023-03-24T10:22:30.986Z,62.69
2023-03-24T10:25:15.688Z,61.38
2023-03-24T10:27:54.794Z,62.32
2023-03-24T10:30:33.066Z,61.87
2023-03-24T10:33:05.065Z,62.25
2023-03-24T10:35:43.536Z,60.61
2023-03-24T10:38:24.073Z,59.75
2023-03-24T10:40:57.066Z,58.70
2023-03-24T10:43:30.624Z,59.41
2023-03-24T10:46:04.987Z,59.35
2023-03-24T10:48:45.249Z,59.36
2023-03-24T10:51:19.904Z,60.42
2023-03-24T10:54:11.023Z,59.12
2023-03-24T10:56:47.007Z,60.04
2023-03-24T10:59:27.414Z,60.07
2023-03-24T11:02:18.438Z,60.08
2023-03-24T11:04:57.139Z,60.49
2023-03-24T11:07:34.776Z,58.94
2023-03-24T11:10:16.914Z,59.98
2023-03-24T11:13:02.510Z,58.72
2023-03-24T11:15:37.763Z,59.96
2023-03-24T11:18:20.116Z,61.45
2023-03-24T11:21:00.738Z,59.05
2023-03-24T11:23:35.882Z,59.55
2023-03-24T11:26:15.795Z,59.66
2023-03-24T11:28:53.261Z,58.44
2023-03-24T11:31:32.203Z,57.78
2023-03-24T11:34:09.433Z,57.60
2023-03-24T11:36:45.363Z,58.76
2023-03-24T11:39:22.154Z,56.78
2023-03-24T11:42:14.531Z,58.55
2023-03-24T11:44:49.263Z,58.34
2023-03-24T11:47:29.883Z,57.95
2023-03-24T11:50:18.707Z,58.34
2023-03-24T11:52:59.774Z,58.09
2023-03-24T11:55:41.701Z,58.37
2023-03-24T11:58:27.887Z,58.12
2023-03-24T12:01:08.273Z,57.32
2023-03-24T12:04:22.721Z,56.92
2023-03-24T12:07:14.591Z,57.50
2023-03-24T12:09:59.098Z,55.39
2023-03-24T12:12:46.663Z,55.62
2023-03-24T12:15:32.555Z,53.98
2023-03-24T12:18:19.960Z,53.35
2023-03-24T12:20:56.927Z,52.14
2023-03-24T12:23:45.615Z,52.54
2023-03-24T12:26:28.345Z,52.51
2023-03-24T12:29:26.608Z,52.42
2023-03-24T12:32:32.988Z,52.22
2023-03-24T12:35:47.753Z,53.59
2023-03-24T12:38:43.287Z,52.83
2023-03-24T12:41:41.194Z,54.17
2023-03-24T12:44:56.720Z,53.58
2023-03-24T12:47:45.778Z,54.59
2023-03-24T12:50:34.958Z,54.68
2023-03-24T12:53:26.564Z,54.53
2023-03-24T12:56:10.678Z,53.51
2023-03-24T12:58:50.794Z,53.81
2023-03-24T13:01:29.804Z,53.29
2023-03-24T13:04:13.093Z,53.91
2023-03-24T13:06:54.463Z,53.55
2023-03-24T13:09:41.670Z,54.56
2023-03-24T13:12:21.047Z,53.21
2023-03-24T13:15:03.256Z,54.10
2023-03-24T13:17:40.151Z,55.51
2023-03-24T13:20:24.401Z,53.16
2023-03-24T13:23:07.321Z,52.48
2023-03-24T13:25:51.231Z,54.81
2023-03-24T13:28:31.835Z,54.26
2023-03-24T13:31:06.185Z,53.93
2023-03-24T13:33:44.072Z,52.35
2023-03-24T13:36:39.285Z,52.78
2023-03-24T13:39:18.029Z,53.52
2023-03-24T13:41:56.943Z,52.31
2023-03-24T13:44:38.617Z,52.60
2023-03-24T13:47:15.671Z,52.76
2023-03-24T13:49:54.954Z,53.17
2023-03-24T13:52:35.129Z,54.52
2023-03-24T13:55:15.395Z,52.83
2023-03-24T13:58:01.616Z,52.87
2023-03-24T14:00:35.149Z,53.95
2023-03-24T14:03:32.531Z,53.79
2023-03-24T14:06:09.034Z,53.92
2023-03-24T14:09:01.619Z,53.16
2023-03-24T14:11:51.540Z,52.61
2023-03-24T14:14:25.496Z,53.53
2023-03-24T14:17:15.714Z,52.80
2023-03-24T14:20:25.595Z,53.54
2023-03-24T14:22:58.085Z,56.48
2023-03-24T14:25:33.959Z,59.43
2023-03-24T14:28:22.312Z,60.20
2023-03-24T14:31:04.410Z,60.88
2023-03-24T14:33:38.720Z,60.67
2023-03-24T14:36:20.632Z,60.36
2023-03-24T14:38:53.050Z,60.37
2023-03-24T14:41:39.109Z,58.86
2023-03-24T14:44:11.559Z,58.32
2023-03-24T14:46:53.446Z,58.62
2023-03-24T14:49:32.509Z,59.11
2023-03-24T14:52:14.445Z,58.66
2023-03-24T14:54:53.568Z,59.44
2023-03-24T14:57:29.561Z,59.10
2023-03-24T15:00:17.353Z,59.43
2023-03-24T15:02:51.623Z,59.69
2023-03-24T15:05:26.028Z,59.57
2023-03-24T15:08:12.938Z,58.63
2023-03-24T15:10:53.356Z,58.51
2023-03-24T15:13:35.985Z,58.74
2023-03-24T15:16:21.600Z,59.33
2023-03-24T15:21:35.957Z,69.69
2023-03-24T15:24:27.026Z,72.13
2023-03-24T15:27:20.329Z,73.12
2023-03-24T15:29:58.965Z,74.24
2023-03-24T15:32:38.761Z,73.92
2023-03-24T15:35:13.348Z,75.49
2023-03-24T15:37:51.119Z,73.50
2023-03-24T15:40:53.338Z,72.81
2023-03-24T15:43:26.441Z,72.94
2023-03-24T15:46:11.852Z,73.56
2023-03-24T15:48:47.725Z,73.83
2023-03-24T15:51:21.034Z,70.42
2023-03-24T15:54:02.021Z,69.93
2023-03-24T15:56:36.348Z,70.85
2023-03-24T15:59:17.787Z,69.99
2023-03-24T16:01:50.551Z,68.28
2023-03-24T16:04:24.072Z,68.39
2023-03-24T16:06:57.615Z,70.02
2023-03-24T16:09:40.776Z,69.85
2023-03-24T16:12:16.143Z,71.16
2023-03-24T16:14:48.008Z,71.68
2023-03-24T16:17:19.947Z,69.92
2023-03-24T16:19:51.951Z,71.29
2023-03-24T16:22:25.277Z,71.98
2023-03-24T16:24:58.350Z,70.51
2023-03-24T16:27:30.066Z,71.60
2023-03-24T16:30:02.063Z,71.96
2023-03-24T16:32:33.931Z,72.40
2023-03-24T16:35:05.890Z,72.73
2023-03-24T16:37:37.708Z,72.35
2023-03-24T16:40:28.858Z,74.03
2023-03-24T16:43:02.173Z,73.49
2023-03-24T16:45:35.568Z,71.65
2023-03-24T16:48:07.708Z,71.52
2023-03-24T16:50:43.170Z,73.98
2023-03-24T16:53:15.581Z,74.64
2023-03-24T16:55:48.790Z,75.71
2023-03-24T16:58:21.633Z,76.95
2023-03-24T17:00:56.266Z,78.66
2023-03-24T17:03:29.656Z,78.93
2023-03-24T17:06:03.512Z,78.66
2023-03-24T17:08:35.479Z,79.23
2023-03-24T17:11:10.931Z,79.36
2023-03-24T17:13:42.555Z,78.60
2023-03-24T17:16:16.741Z,79.63
2023-03-24T17:18:48.465Z,78.61
2023-03-24T17:21:21.727Z,78.29
2023-03-24T17:23:55.806Z,79.20
2023-03-24T17:26:31.580Z,79.51
2023-03-24T17:29:04.006Z,78.31
2023-03-24T17:31:35.951Z,77.90
2023-03-24T17:34:20.636Z,78.04
2023-03-24T17:36:53.058Z,79.29
2023-03-24T17:39:25.885Z,78.52
2023-03-24T17:42:01.314Z,78.47
2023-03-24T17:44:33.437Z,77.46
2023-03-24T17:47:05.549Z,78.25
2023-03-24T17:49:37.444Z,77.59
2023-03-24T17:52:09.234Z,77.57
2023-03-24T17:54:41.211Z,77.67
2023-03-24T17:57:14.580Z,76.89
2023-03-24T17:59:46.553Z,77.03
2023-03-24T18:02:18.629Z,76.82
2023-03-24T18:04:50.652Z,76.63
2023-03-24T18:07:22.990Z,76.16
2023-03-24T18:09:54.599Z,76.58
2023-03-24T18:12:28.794Z,76.49
2023-03-24T18:15:00.696Z,76.22
2023-03-24T18:17:32.621Z,75.87
2023-03-24T18:20:10.097Z,76.75
2023-03-24T18:22:42.064Z,76.25
2023-03-24T18:25:16.006Z,77.06
2023-03-24T18:27:49.710Z,77.19
2023-03-24T18:30:22.243Z,76.94
2023-03-24T18:32:54.090Z,77.03
2023-03-24T18:35:25.728Z,77.40
2023-03-24T18:37:57.606Z,77.09
2023-03-24T18:40:29.565Z,77.49
2023-03-24T18:43:02.815Z,76.89
2023-03-24T18:45:34.666Z,77.44
2023-03-24T18:48:07.242Z,78.36
2023-03-24T18:50:42.209Z,78.37
2023-03-24T18:53:14.483Z,77.78
2023-03-24T18:55:49.850Z,78.37
2023-03-24T18:58:23.654Z,78.14
2023-03-24T19:00:58.462Z,78.11
2023-03-24T19:03:31.012Z,78.49
2023-03-24T19:06:07.621Z,78.89
2023-03-24T19:08:41.785Z,78.96
2023-03-24T19:11:16.035Z,79.08
2023-03-24T19:13:50.665Z,79.18
2023-03-24T19:16:24.251Z,78.83
2023-03-24T19:18:57.945Z,78.54
2023-03-24T19:21:30.056Z,79.36
2023-03-24T19:24:01.894Z,79.13
2023-03-24T19:26:34.042Z,79.30
2023-03-24T19:29:07.141Z,79.12
2023-03-24T19:31:38.991Z,79.49
2023-03-24T19:34:10.937Z,79.14
2023-03-24T19:36:45.836Z,79.35
2023-03-24T19:39:18.876Z,78.91
2023-03-24T19:41:50.846Z,78.95
2023-03-24T19:44:24.706Z,78.93
2023-03-24T19:46:56.366Z,79.79
2023-03-24T19:49:28.406Z,79.33
2023-03-24T19:52:00.285Z,79.63
2023-03-24T19:54:32.142Z,79.04
2023-03-24T19:57:04.189Z,79.08
2023-03-24T19:59:37.529Z,78.69
2023-03-24T20:02:15.457Z,78.85
2023-03-24T20:04:47.761Z,79.20
2023-03-24T20:07:19.638Z,79.48
2023-03-24T20:09:51.665Z,78.86
2023-03-24T20:12:26.551Z,79.16
2023-03-24T20:14:59.911Z,79.56
2023-03-24T20:17:37.245Z,79.52
2023-03-24T20:20:10.504Z,79.26
2023-03-24T20:22:45.660Z,78.66
2023-03-24T20:25:19.959Z,79.27
2023-03-24T20:27:51.939Z,78.44
2023-03-24T20:30:28.083Z,78.56
2023-03-24T20:33:01.184Z,78.11
2023-03-24T20:38:05.032Z,77.92
2023-03-24T20:40:36.940Z,77.39
2023-03-24T20:43:08.901Z,77.51
2023-03-24T20:45:41.880Z,77.18
2023-03-24T20:48:13.711Z,77.13
2023-03-24T20:50:47.280Z,76.81
2023-03-24T20:53:20.897Z,76.78
2023-03-24T20:56:04.343Z,75.89
2023-03-24T20:58:38.416Z,75.84
2023-03-24T21:01:15.194Z,76.12
2023-03-24T21:03:47.148Z,76.56
2023-03-24T21:06:20.063Z,76.10
2023-03-24T21:08:54.374Z,76.38
2023-03-24T21:11:26.199Z,76.94
2023-03-24T21:13:58.193Z,76.73
2023-03-24T21:16:33.686Z,76.94
2023-03-24T21:19:10.326Z,77.24
2023-03-24T21:21:44.509Z,77.14
2023-03-24T21:24:16.585Z,77.00
2023-03-24T21:26:50.727Z,77.21
2023-03-24T21:29:23.146Z,77.63
2023-03-24T21:31:56.081Z,77.45
2023-03-24T21:34:27.985Z,77.68
2023-03-24T21:37:01.551Z,77.47
2023-03-24T21:39:33.577Z,78.17
2023-03-24T21:42:06.783Z,78.00
2023-03-24T21:44:39.631Z,77.74
2023-03-24T21:47:14.758Z,78.19
2023-03-24T21:49:48.980Z,78.71
2023-03-24T21:52:20.853Z,77.96
2023-03-24T21:54:53.718Z,78.13
2023-03-24T21:57:25.766Z,78.49
2023-03-24T21:59:58.176Z,78.88
2023-03-24T22:02:34.785Z,78.33
2023-03-24T22:05:07.014Z,78.82
2023-03-24T22:07:39.385Z,78.53
2023-03-24T22:10:16.180Z,78.98
2023-03-24T22:12:57.157Z,78.60
2023-03-24T22:15:32.436Z,79.04
2023-03-24T22:18:06.452Z,79.01
2023-03-24T22:20:38.097Z,78.44
2023-03-24T22:23:09.973Z,78.33
2023-03-24T22:25:41.826Z,78.68
2023-03-24T22:28:13.748Z,78.65
2023-03-24T22:30:45.525Z,78.30
2023-03-24T22:33:18.895Z,78.15
2023-03-24T22:35:54.817Z,78.18
2023-03-24T22:38:26.429Z,77.94
2023-03-24T22:41:00.470Z,78.31
2023-03-24T22:43:33.145Z,78.29
2023-03-24T22:46:04.882Z,78.38
2023-03-24T22:48:38.497Z,78.16
2023-03-24T22:51:16.784Z,78.01
2023-03-24T22:53:48.512Z,77.82
2023-03-24T22:56:20.377Z,78.18
2023-03-24T22:58:52.167Z,77.04
2023-03-24T23:01:24.271Z,77.49
2023-03-24T23:03:57.466Z,76.96
2023-03-24T23:06:29.756Z,76.76
2023-03-24T23:09:01.583Z,77.04
2023-03-24T23:11:33.758Z,76.87
2023-03-24T23:14:06.023Z,77.01
2023-03-24T23:16:40.371Z,77.53
2023-03-24T23:19:15.276Z,77.46
2023-03-24T23:21:47.229Z,77.56
2023-03-24T23:24:19.100Z,77.51
2023-03-24T23:26:50.629Z,77.88
2023-03-24T23:29:22.444Z,76.63
2023-03-24T23:31:54.347Z,76.51
2023-03-24T23:34:27.411Z,76.67
2023-03-24T23:37:03.154Z,76.71
2023-03-24T23:39:36.681Z,77.33
2023-03-24T23:42:08.347Z,77.11
2023-03-24T23:44:40.491Z,76.82
2023-03-24T23:47:18.202Z,76.14
2023-03-24T23:49:51.450Z,76.91
2023-03-24T23:52:23.270Z,76.26
2023-03-24T23:54:55.156Z,75.95
2023-03-24T23:57:27.217Z,76.23
